首页
METAR-TAF:

METAR-TAF

机场 :

里耶卡, 克罗地亚

纬度: 45-13N, 经度: 014-35E, 海拔: 85米

当前天气观测

该预报发布于24分钟前的20:30 UTC
风速10节,风向东转东北
温度 25°C
湿度 54%
气压 1020 hPa
能见度10公里或以上
少量云层高于4000英尺
多云层高于5000英尺

METAR: LDRI 222030Z 06010KT 9999 FEW040 BKN050 25/15 Q1020

时间: 22:54 (20:54 UTC)

预报

该预报发布于3小时和29分钟前的17:25 UTC
预报有效从22日的 18点(UTC)到 23日的 18点(UTC)
风速10节,风向东转东北
能见度10公里或以上
1500米以下无云,无积雨云
几率 30% :
短暂存在
从 22日的 22点(UTC)到 23日的 03点(UTC)
风速15节,风向东转东北,有时为25节阵风
几率 30% :
短暂存在
从 23日的 03点(UTC)到 23日的 06点(UTC)
少量云层高于4500英尺, 积雨云.
雷暴, 小雨
几率 30% :
短暂存在
从 23日的 10点(UTC)到 23日的 18点(UTC)
少量云层高于4000英尺, 积雨云.
多云层高于4500英尺
雷暴

TAF: LDRI 221725Z 2218/2318 06010KT CAVOK TX30/2312Z TN22/2304Z PROB30 TEMPO 2222/2303 06015G25KT PROB30 TEMPO 2303/2306 -TSRA FEW045CB PROB30 TEMPO 2310/2318 TS FEW040CB BKN045

超过4000个机场的气象观测和天气预报(METAR&TAF报告)。

可查询的气象台以黄色和红色小点在地图上表示。

将鼠标移到小点上方,可查看气象台名称。

然后点击查看天气观测和预报。

如需切换地图:点击带黑十字的绿色按钮放大地图;点击带横线的绿色按钮缩小地图;或者点击绿色箭头查看邻近地区的地图。


METAR-TAF: